createdAt,value
2022-08-18T00:00:47.964Z,7.75
2022-08-18T00:03:57.360Z,7.97
2022-08-18T00:07:05.071Z,8.07
2022-08-18T00:10:08.036Z,8.10
2022-08-18T00:13:21.400Z,8.07
2022-08-18T00:16:24.251Z,8.13
2022-08-18T00:19:46.896Z,7.65
2022-08-18T00:22:50.721Z,8.00
2022-08-18T00:25:53.630Z,7.60
2022-08-18T00:28:56.796Z,8.05
2022-08-18T00:31:59.704Z,8.60
2022-08-18T00:35:01.879Z,7.63
2022-08-18T00:38:04.525Z,7.72
2022-08-18T00:41:07.060Z,7.95
2022-08-18T00:44:10.240Z,7.18
2022-08-18T00:47:13.590Z,7.65
2022-08-18T00:50:36.283Z,7.30
2022-08-18T00:53:38.433Z,7.38
2022-08-18T00:56:41.252Z,7.70
2022-08-18T00:59:44.160Z,7.43
2022-08-18T01:02:46.992Z,7.40
2022-08-18T01:05:50.230Z,7.00
2022-08-18T01:08:53.099Z,7.55
2022-08-18T01:11:56.037Z,6.95
2022-08-18T01:14:59.403Z,7.28
2022-08-18T01:18:02.368Z,7.28
2022-08-18T01:21:04.967Z,7.35
2022-08-18T01:24:07.671Z,7.20
2022-08-18T01:27:10.463Z,7.03
2022-08-18T01:30:12.636Z,8.13
2022-08-18T01:33:14.875Z,7.53
2022-08-18T01:36:17.886Z,7.72
2022-08-18T01:40:59.935Z,7.00
2022-08-18T01:42:43.685Z,7.53
2022-08-18T01:45:46.315Z,6.65
2022-08-18T01:48:49.184Z,6.90
2022-08-18T01:51:51.775Z,8.23
2022-08-18T01:54:55.138Z,7.32
2022-08-18T01:57:58.110Z,8.68
2022-08-18T02:01:01.249Z,7.30
2022-08-18T02:04:31.220Z,6.78
2022-08-18T02:07:32.643Z,6.95
2022-08-18T02:10:38.865Z,8.43
2022-08-18T02:13:41.843Z,6.72
2022-08-18T02:16:45.150Z,7.68
2022-08-18T02:19:48.049Z,7.85
2022-08-18T02:22:51.914Z,7.32
2022-08-18T02:25:54.756Z,7.65
2022-08-18T02:28:57.167Z,6.15
2022-08-18T02:31:59.807Z,7.38
2022-08-18T02:35:02.880Z,6.22
2022-08-18T02:38:08.518Z,7.05
2022-08-18T02:41:11.387Z,7.60
2022-08-18T02:44:14.266Z,7.32
2022-08-18T02:47:17.358Z,6.93
2022-08-18T02:50:20.128Z,6.30
2022-08-18T02:53:22.638Z,7.05
2022-08-18T02:56:40.264Z,6.55
2022-08-18T02:59:47.355Z,6.07
2022-08-18T03:02:50.856Z,6.55
2022-08-18T03:05:53.386Z,7.22
2022-08-18T03:08:56.274Z,7.78
2022-08-18T03:11:58.882Z,6.00
2022-08-18T03:15:01.132Z,6.63
2022-08-18T03:18:03.779Z,7.63
2022-08-18T03:21:07.737Z,7.35
2022-08-18T03:24:10.815Z,6.53
2022-08-18T03:27:13.813Z,7.28
2022-08-18T03:30:16.404Z,8.95
2022-08-18T03:33:19.296Z,7.22
2022-08-18T03:36:22.639Z,10.25
2022-08-18T03:39:25.958Z,22.27
2022-08-18T03:42:28.918Z,36.42
2022-08-18T03:45:31.412Z,48.35
2022-08-18T03:48:34.053Z,48.95
2022-08-18T03:51:37.046Z,59.47
2022-08-18T03:54:39.326Z,54.95
2022-08-18T03:57:42.360Z,45.90
2022-08-18T04:00:45.106Z,39.38
2022-08-18T04:03:48.371Z,32.83
2022-08-18T04:06:52.078Z,35.30
2022-08-18T04:09:54.953Z,38.30
2022-08-18T04:12:57.514Z,37.38
2022-08-18T04:15:59.960Z,35.47
2022-08-18T04:19:02.994Z,32.28
2022-08-18T04:22:05.630Z,34.25
2022-08-18T04:25:08.197Z,33.63
2022-08-18T04:28:10.942Z,29.98
2022-08-18T04:31:14.261Z,30.95
2022-08-18T04:34:17.042Z,28.13
2022-08-18T04:37:20.083Z,26.17
2022-08-18T04:40:25.198Z,26.33
2022-08-18T04:43:27.873Z,28.10
2022-08-18T04:46:30.456Z,25.52
2022-08-18T04:49:33.445Z,24.20
2022-08-18T04:52:40.576Z,24.60
2022-08-18T04:55:44.383Z,24.33
2022-08-18T04:58:47.595Z,23.23
2022-08-18T05:01:52.866Z,22.13
2022-08-18T05:04:55.930Z,19.73
2022-08-18T05:07:58.818Z,21.85
2022-08-18T05:11:04.130Z,21.50
2022-08-18T05:14:06.599Z,21.02
2022-08-18T05:17:09.815Z,22.00
2022-08-18T05:20:12.629Z,19.65
2022-08-18T05:23:14.550Z,17.45
2022-08-18T05:26:17.541Z,18.55
2022-08-18T05:29:19.995Z,17.90
2022-08-18T05:32:37.104Z,17.13
2022-08-18T05:35:45.458Z,18.67
2022-08-18T05:38:48.074Z,15.52
2022-08-18T05:41:50.716Z,16.48
2022-08-18T05:44:53.663Z,16.67
2022-08-18T05:47:56.389Z,15.32
2022-08-18T05:50:59.307Z,16.35
2022-08-18T05:54:01.516Z,16.35
2022-08-18T05:57:04.095Z,14.10
2022-08-18T06:00:06.307Z,15.15
2022-08-18T06:03:14.326Z,15.50
2022-08-18T06:06:17.886Z,17.08
2022-08-18T06:09:20.914Z,14.73
2022-08-18T06:12:23.834Z,13.55
2022-08-18T06:15:26.815Z,14.15
2022-08-18T06:18:29.801Z,14.13
2022-08-18T06:21:36.870Z,13.75
2022-08-18T06:24:41.621Z,12.60
2022-08-18T06:27:44.458Z,11.98
2022-08-18T06:30:49.011Z,11.57
2022-08-18T06:33:51.670Z,12.48
2022-08-18T06:36:54.586Z,13.35
2022-08-18T06:39:58.622Z,12.85
2022-08-18T06:43:02.330Z,12.82
2022-08-18T06:46:05.665Z,10.73
2022-08-18T06:49:08.642Z,12.30
2022-08-18T06:52:11.423Z,11.68
2022-08-18T06:55:13.875Z,10.57
2022-08-18T06:58:16.839Z,10.27
2022-08-18T07:01:19.478Z,12.88
2022-08-18T07:04:21.815Z,10.05
2022-08-18T07:07:24.035Z,8.73
2022-08-18T07:10:28.448Z,9.48
2022-08-18T07:13:31.680Z,12.52
2022-08-18T07:16:57.333Z,9.98
2022-08-18T07:19:56.838Z,9.35
2022-08-18T07:22:59.794Z,10.50
2022-08-18T07:26:03.061Z,13.10
2022-08-18T07:29:06.300Z,11.32
2022-08-18T07:32:13.913Z,11.73
2022-08-18T07:35:23.233Z,12.00
2022-08-18T07:38:44.179Z,10.30
2022-08-18T07:41:47.663Z,11.63
2022-08-18T07:44:50.439Z,11.07
2022-08-18T07:47:53.570Z,9.57
2022-08-18T07:50:58.886Z,11.10
2022-08-18T07:54:04.233Z,10.70
2022-08-18T07:57:07.169Z,12.80
2022-08-18T08:00:10.549Z,10.75
2022-08-18T08:03:23.072Z,9.40
2022-08-18T08:06:25.825Z,9.55
2022-08-18T08:09:28.949Z,11.38
2022-08-18T08:12:32.264Z,9.35
2022-08-18T08:15:35.246Z,12.70
2022-08-18T08:18:38.175Z,10.25
2022-08-18T08:21:40.837Z,9.40
2022-08-18T08:24:43.543Z,8.73
2022-08-18T08:27:46.569Z,7.95
2022-08-18T08:30:49.417Z,8.40
2022-08-18T08:33:53.016Z,7.38
2022-08-18T08:36:55.958Z,7.35
2022-08-18T08:39:58.632Z,8.63
2022-08-18T08:43:01.671Z,9.23
2022-08-18T08:46:04.624Z,8.68
2022-08-18T08:49:07.621Z,7.45
2022-08-18T08:52:10.260Z,7.90
2022-08-18T08:55:13.093Z,7.95
2022-08-18T08:58:16.415Z,6.57
2022-08-18T09:01:19.448Z,5.78
2022-08-18T09:04:21.586Z,6.38
2022-08-18T09:07:24.363Z,6.38
2022-08-18T09:10:27.098Z,5.43
2022-08-18T09:13:29.717Z,5.40
2022-08-18T09:16:32.160Z,5.10
2022-08-18T09:19:35.334Z,5.82
2022-08-18T09:22:37.783Z,5.93
2022-08-18T09:25:40.716Z,5.25
2022-08-18T09:28:43.498Z,6.97
2022-08-18T09:31:46.213Z,5.35
2022-08-18T09:34:48.960Z,4.18
2022-08-18T09:37:51.231Z,3.45
2022-08-18T09:41:02.350Z,3.95
2022-08-18T09:44:05.257Z,4.95
2022-08-18T09:47:08.194Z,6.80
2022-08-18T09:50:24.563Z,4.63
2022-08-18T09:53:29.566Z,5.57
2022-08-18T09:56:32.349Z,4.30
2022-08-18T09:59:35.325Z,5.20
2022-08-18T10:02:39.094Z,6.15
2022-08-18T10:05:41.988Z,4.53
2022-08-18T10:08:44.940Z,5.43
2022-08-18T10:11:48.165Z,4.63
2022-08-18T10:14:54.515Z,4.78
2022-08-18T10:17:57.792Z,5.30
2022-08-18T10:21:00.024Z,4.82
2022-08-18T10:27:26.229Z,6.25
2022-08-18T10:30:34.410Z,5.03
2022-08-18T10:33:39.413Z,4.90
2022-08-18T10:36:42.249Z,6.13
2022-08-18T10:39:46.319Z,5.57
2022-08-18T10:42:49.558Z,5.35
2022-08-18T10:46:24.607Z,4.00
2022-08-18T10:49:19.557Z,4.90
2022-08-18T10:52:23.009Z,5.57
2022-08-18T10:55:26.176Z,4.80
2022-08-18T10:58:48.868Z,4.15
2022-08-18T11:01:51.721Z,2.95
2022-08-18T11:04:59.321Z,2.88
2022-08-18T11:08:02.416Z,4.35
2022-08-18T11:11:39.095Z,3.50
2022-08-18T11:14:41.602Z,3.38
2022-08-18T11:17:45.333Z,5.30
2022-08-18T11:20:47.765Z,4.57
2022-08-18T11:23:50.002Z,5.25
2022-08-18T11:26:53.633Z,6.07
2022-08-18T11:29:56.387Z,5.78
2022-08-18T11:33:00.108Z,4.57
2022-08-18T11:36:05.184Z,5.63
2022-08-18T11:39:07.318Z,7.13
2022-08-18T11:42:15.891Z,5.07
2022-08-18T11:45:24.830Z,5.00
2022-08-18T11:48:36.228Z,5.15
2022-08-18T11:51:49.860Z,4.22
2022-08-18T11:54:54.178Z,4.43
2022-08-18T11:57:59.392Z,4.57
2022-08-18T12:01:03.211Z,4.97
2022-08-18T12:04:06.370Z,5.85
2022-08-18T12:07:09.795Z,6.53
2022-08-18T12:10:17.749Z,8.27
2022-08-18T12:13:21.527Z,7.68
2022-08-18T12:16:25.051Z,7.78
2022-08-18T12:19:27.912Z,5.13
2022-08-18T12:22:32.293Z,6.68
2022-08-18T12:25:34.810Z,5.30
2022-08-18T12:28:41.382Z,6.22
2022-08-18T12:31:48.172Z,6.95
2022-08-18T12:34:51.529Z,6.05
2022-08-18T12:38:11.070Z,5.70
2022-08-18T12:41:22.929Z,5.00
2022-08-18T12:44:27.156Z,4.95
2022-08-18T12:50:58.510Z,5.43
2022-08-18T12:54:02.198Z,4.57
2022-08-18T12:57:06.606Z,5.13
2022-08-18T13:00:09.481Z,5.75
2022-08-18T13:03:19.950Z,4.15
2022-08-18T13:06:23.359Z,5.47
2022-08-18T13:09:35.029Z,6.15
2022-08-18T13:12:53.553Z,5.10
2022-08-18T13:15:58.485Z,6.00
2022-08-18T13:19:05.968Z,3.67
2022-08-18T13:22:08.617Z,3.00
2022-08-18T13:25:13.347Z,4.53
2022-08-18T13:28:52.888Z,5.90
2022-08-18T13:31:58.572Z,4.53
2022-08-18T13:35:02.714Z,4.18
2022-08-18T13:38:17.503Z,3.75
2022-08-18T13:41:23.443Z,4.20
2022-08-18T13:44:26.927Z,5.18
2022-08-18T13:47:30.034Z,3.70
2022-08-18T13:50:32.442Z,3.85
2022-08-18T13:53:37.535Z,3.28
2022-08-18T13:56:52.521Z,5.22
2022-08-18T13:59:55.882Z,3.97
2022-08-18T14:02:58.969Z,4.57
2022-08-18T14:06:01.928Z,3.75
2022-08-18T14:09:19.744Z,4.60
2022-08-18T14:12:33.105Z,5.35
2022-08-18T14:15:36.020Z,3.65
2022-08-18T14:18:39.149Z,3.42
2022-08-18T14:21:42.637Z,3.55
2022-08-18T14:24:48.992Z,3.00
2022-08-18T14:27:56.766Z,3.87
2022-08-18T14:30:59.879Z,3.22
2022-08-18T14:34:04.387Z,3.70
2022-08-18T14:37:09.899Z,3.20
2022-08-18T14:40:15.081Z,4.53
2022-08-18T14:43:17.858Z,3.28
2022-08-18T14:49:28.506Z,3.65
2022-08-18T14:52:32.284Z,3.90
2022-08-18T14:55:35.870Z,4.00
2022-08-18T14:58:38.542Z,4.57
2022-08-18T15:01:42.413Z,4.65
2022-08-18T15:04:55.857Z,4.05
2022-08-18T15:08:00.380Z,3.95
2022-08-18T15:11:04.992Z,3.50
2022-08-18T15:14:08.373Z,3.22
2022-08-18T15:17:11.953Z,3.88
2022-08-18T15:20:16.288Z,4.43
2022-08-18T15:23:24.863Z,5.70
2022-08-18T15:26:31.300Z,3.78
2022-08-18T15:29:34.164Z,4.60
2022-08-18T15:32:36.545Z,3.28
2022-08-18T15:35:41.554Z,4.20
2022-08-18T15:44:53.596Z,4.18
2022-08-18T15:47:57.084Z,4.68
2022-08-18T15:51:06.213Z,4.38
2022-08-18T15:54:14.970Z,3.90
2022-08-18T15:57:39.740Z,3.55
2022-08-18T16:00:41.126Z,2.33
2022-08-18T16:03:44.906Z,4.05
2022-08-18T16:06:52.523Z,3.47
2022-08-18T16:09:56.383Z,3.05
2022-08-18T16:12:59.518Z,4.20
2022-08-18T16:16:02.457Z,3.42
2022-08-18T16:19:05.572Z,3.67
2022-08-18T16:22:08.739Z,4.00
2022-08-18T16:25:12.028Z,3.25
2022-08-18T16:28:15.024Z,3.65
2022-08-18T16:31:18.010Z,3.67
2022-08-18T16:34:20.796Z,4.43
2022-08-18T16:37:24.039Z,2.85
2022-08-18T16:40:28.015Z,3.42
2022-08-18T16:43:30.127Z,3.20
2022-08-18T16:46:32.605Z,2.90
2022-08-18T16:49:35.097Z,3.10
2022-08-18T16:52:37.653Z,3.92
2022-08-18T16:55:40.501Z,4.03
2022-08-18T16:58:42.882Z,3.08
2022-08-18T17:01:49.418Z,4.43
2022-08-18T17:04:52.465Z,4.53
2022-08-18T17:07:55.132Z,3.97
2022-08-18T17:10:58.678Z,3.50
2022-08-18T17:14:01.617Z,3.53
2022-08-18T17:17:04.085Z,4.03
2022-08-18T17:20:07.041Z,2.83
2022-08-18T17:23:14.048Z,11.00
2022-08-18T17:26:16.956Z,60.78
2022-08-18T17:29:20.213Z,61.95
2022-08-18T17:32:22.413Z,39.80
2022-08-18T17:35:28.689Z,36.53
2022-08-18T17:38:33.666Z,28.63
2022-08-18T17:41:36.680Z,21.05
2022-08-18T17:44:46.248Z,16.13
2022-08-18T17:47:54.778Z,10.48
2022-08-18T17:50:57.653Z,8.90
2022-08-18T17:54:00.340Z,8.73
2022-08-18T17:57:02.603Z,6.97
2022-08-18T18:00:04.815Z,5.85
2022-08-18T18:03:13.559Z,4.05
2022-08-18T18:06:16.735Z,3.67
2022-08-18T18:09:20.256Z,4.72
2022-08-18T18:12:22.463Z,4.13
2022-08-18T18:15:25.041Z,4.35
2022-08-18T18:18:29.429Z,3.53
2022-08-18T18:21:55.272Z,3.30
2022-08-18T18:24:54.894Z,4.85
2022-08-18T18:27:58.235Z,3.90
2022-08-18T18:31:01.952Z,4.05
2022-08-18T18:34:04.918Z,3.53
2022-08-18T18:37:07.729Z,2.63
2022-08-18T18:40:10.076Z,3.60
2022-08-18T18:43:14.667Z,3.95
2022-08-18T18:46:19.127Z,2.90
2022-08-18T18:49:21.319Z,3.40
2022-08-18T18:52:23.977Z,3.38
2022-08-18T18:55:26.789Z,4.55
2022-08-18T18:58:29.828Z,3.33
2022-08-18T19:01:32.405Z,3.58
2022-08-18T19:04:35.206Z,3.05
2022-08-18T19:07:37.406Z,3.55
2022-08-18T19:10:40.114Z,4.13
2022-08-18T19:13:43.149Z,4.65
2022-08-18T19:16:47.708Z,3.15
2022-08-18T19:19:50.762Z,4.35
2022-08-18T19:22:54.092Z,5.72
2022-08-18T19:25:57.387Z,4.22
2022-08-18T19:29:13.575Z,3.03
2022-08-18T19:32:17.036Z,2.88
2022-08-18T19:35:20.484Z,2.85
2022-08-18T19:38:26.456Z,3.20
2022-08-18T19:41:31.401Z,3.15
2022-08-18T19:44:35.473Z,3.72
2022-08-18T19:47:38.909Z,4.97
2022-08-18T19:50:41.949Z,6.18
2022-08-18T19:53:46.509Z,6.88
2022-08-18T19:56:51.687Z,5.87
2022-08-18T19:59:54.711Z,5.10
2022-08-18T20:02:59.382Z,6.78
2022-08-18T20:06:13.279Z,6.38
2022-08-18T20:09:25.148Z,4.10
2022-08-18T20:12:27.883Z,7.10
2022-08-18T20:15:30.918Z,5.18
2022-08-18T20:18:33.537Z,4.82
2022-08-18T20:21:41.553Z,6.75
2022-08-18T20:24:44.945Z,4.82
2022-08-18T20:27:48.347Z,5.32
2022-08-18T20:30:52.007Z,4.88
2022-08-18T20:33:54.787Z,6.20
2022-08-18T20:36:57.441Z,5.25
2022-08-18T20:39:59.845Z,5.40
2022-08-18T20:43:07.910Z,5.22
2022-08-18T20:46:11.444Z,4.85
2022-08-18T20:49:14.634Z,5.47
2022-08-18T20:52:17.118Z,4.05
2022-08-18T20:55:31.683Z,6.22
2022-08-18T20:58:34.344Z,5.00
2022-08-18T21:01:36.869Z,3.97
2022-08-18T21:04:43.062Z,4.60
2022-08-18T21:07:45.437Z,4.47
2022-08-18T21:10:47.654Z,6.35
2022-08-18T21:13:51.258Z,6.30
2022-08-18T21:16:54.948Z,5.25
2022-08-18T21:19:57.945Z,5.10
2022-08-18T21:23:00.381Z,3.20
2022-08-18T21:26:06.456Z,4.35
2022-08-18T21:29:08.988Z,3.83
2022-08-18T21:32:11.486Z,4.30
2022-08-18T21:35:14.148Z,4.88
2022-08-18T21:38:16.356Z,6.07
2022-08-18T21:41:19.516Z,5.47
2022-08-18T21:44:26.408Z,4.22
2022-08-18T21:47:30.001Z,4.50
2022-08-18T21:50:32.294Z,3.45
2022-08-18T21:53:34.958Z,4.90
2022-08-18T21:56:37.713Z,4.50
2022-08-18T21:59:40.508Z,3.83
2022-08-18T22:02:43.354Z,4.13
2022-08-18T22:05:57.937Z,3.53
2022-08-18T22:09:02.637Z,3.55
2022-08-18T22:12:04.909Z,4.20
2022-08-18T22:15:08.527Z,3.78
2022-08-18T22:18:12.253Z,3.20
2022-08-18T22:21:15.588Z,3.40
2022-08-18T22:24:18.637Z,3.42
2022-08-18T22:27:21.788Z,4.15
2022-08-18T22:30:24.326Z,3.65
2022-08-18T22:33:27.049Z,5.00
2022-08-18T22:36:29.960Z,4.10
2022-08-18T22:39:33.420Z,3.45
2022-08-18T22:42:36.071Z,5.03
2022-08-18T22:45:38.529Z,4.75
2022-08-18T22:48:41.597Z,3.30
2022-08-18T22:51:44.413Z,4.03
2022-08-18T22:54:46.632Z,4.85
2022-08-18T22:57:55.866Z,4.70
2022-08-18T23:01:05.320Z,3.72
2022-08-18T23:04:08.653Z,5.38
2022-08-18T23:07:10.851Z,4.90
2022-08-18T23:10:14.493Z,4.80
2022-08-18T23:13:17.524Z,4.78
2022-08-18T23:16:31.374Z,5.22
2022-08-18T23:19:35.263Z,6.13
2022-08-18T23:22:38.098Z,3.58
2022-08-18T23:25:40.672Z,3.55
2022-08-18T23:28:44.340Z,4.18
2022-08-18T23:31:47.152Z,3.42
2022-08-18T23:34:49.964Z,5.10
2022-08-18T23:37:54.491Z,5.65
2022-08-18T23:40:57.277Z,4.80
2022-08-18T23:44:00.639Z,6.38
2022-08-18T23:47:03.951Z,3.10
2022-08-18T23:50:06.911Z,3.60
2022-08-18T23:53:09.496Z,3.58
2022-08-18T23:56:12.737Z,3.92
2022-08-18T23:59:15.617Z,4.38
